createdAt,value
2019-02-17T00:00:13.004Z,2.50
2019-02-17T00:02:41.603Z,2.40
2019-02-17T00:05:10.246Z,2.40
2019-02-17T00:07:38.844Z,2.30
2019-02-17T00:10:07.544Z,2.30
2019-02-17T00:12:36.149Z,2.20
2019-02-17T00:15:07.348Z,2.20
2019-02-17T00:17:35.951Z,2.20
2019-02-17T00:20:07.970Z,2.20
2019-02-17T00:22:35.887Z,2.30
2019-02-17T00:25:05.783Z,2.10
2019-02-17T00:27:34.468Z,2.20
2019-02-17T00:30:03.377Z,2.20
2019-02-17T00:32:32.045Z,2.30
2019-02-17T00:35:00.613Z,2.30
2019-02-17T00:37:29.176Z,2.40
2019-02-17T00:39:57.776Z,2.40
2019-02-17T00:42:26.341Z,2.30
2019-02-17T00:44:54.943Z,2.20
2019-02-17T00:47:23.576Z,2.10
2019-02-17T00:49:52.180Z,2.10
2019-02-17T00:52:20.829Z,2.20
2019-02-17T00:54:49.427Z,2.20
2019-02-17T00:57:17.989Z,2.20
2019-02-17T00:59:46.590Z,2.10
2019-02-17T01:02:15.153Z,2.10
2019-02-17T01:04:43.755Z,1.90
2019-02-17T01:07:12.314Z,1.90
2019-02-17T01:09:40.921Z,1.90
2019-02-17T01:12:09.479Z,1.90
2019-02-17T01:14:38.084Z,1.90
2019-02-17T01:17:06.649Z,1.80
2019-02-17T01:19:35.256Z,1.80
2019-02-17T01:22:03.813Z,1.70
2019-02-17T01:24:32.408Z,1.80
2019-02-17T01:27:00.972Z,1.70
2019-02-17T01:29:29.650Z,1.90
2019-02-17T01:31:58.200Z,2.00
2019-02-17T01:34:26.799Z,1.70
2019-02-17T01:36:55.355Z,1.80
2019-02-17T01:39:23.959Z,1.80
2019-02-17T01:41:52.518Z,1.80
2019-02-17T01:44:21.123Z,1.80
2019-02-17T01:46:49.682Z,1.80
2019-02-17T01:49:18.288Z,1.80
2019-02-17T01:51:46.847Z,1.90
2019-02-17T01:54:15.706Z,1.80
2019-02-17T01:56:44.269Z,1.80
2019-02-17T01:59:12.863Z,1.90
2019-02-17T02:01:41.427Z,1.80
2019-02-17T02:04:10.028Z,1.60
2019-02-17T02:06:38.585Z,1.40
2019-02-17T02:09:09.301Z,1.50
2019-02-17T02:11:37.976Z,1.50
2019-02-17T02:14:06.615Z,1.50
2019-02-17T02:16:35.134Z,1.50
2019-02-17T02:19:03.740Z,1.70
2019-02-17T02:21:32.289Z,1.70
2019-02-17T02:24:00.843Z,1.70
2019-02-17T02:26:29.444Z,1.70
2019-02-17T02:28:58.000Z,1.80
2019-02-17T02:31:26.596Z,1.80
2019-02-17T02:33:55.167Z,1.80
2019-02-17T02:36:23.778Z,1.70
2019-02-17T02:38:52.332Z,1.50
2019-02-17T02:41:20.932Z,1.30
2019-02-17T02:43:49.483Z,1.20
2019-02-17T02:46:18.148Z,1.40
2019-02-17T02:48:46.712Z,1.30
2019-02-17T02:51:15.314Z,1.20
2019-02-17T02:53:43.869Z,1.30
2019-02-17T02:56:12.476Z,1.40
2019-02-17T02:58:41.039Z,1.40
2019-02-17T03:01:10.817Z,1.40
2019-02-17T03:03:39.375Z,1.30
2019-02-17T03:06:12.521Z,1.40
2019-02-17T03:08:41.071Z,1.30
2019-02-17T03:11:09.669Z,1.30
2019-02-17T03:13:38.237Z,1.40
2019-02-17T03:16:06.838Z,1.40
2019-02-17T03:18:35.389Z,1.50
2019-02-17T03:21:03.988Z,1.50
2019-02-17T03:23:32.544Z,1.50
2019-02-17T03:26:01.683Z,1.50
2019-02-17T03:28:30.402Z,1.10
2019-02-17T03:30:59.137Z,0.80
2019-02-17T03:33:27.692Z,1.10
2019-02-17T03:35:56.292Z,1.10
2019-02-17T03:38:24.852Z,0.90
2019-02-17T03:40:53.453Z,1.00
2019-02-17T03:43:22.079Z,1.20
2019-02-17T03:45:50.677Z,1.30
2019-02-17T03:48:19.322Z,1.30
2019-02-17T03:50:47.915Z,1.30
2019-02-17T03:53:16.470Z,1.30
2019-02-17T03:55:45.072Z,1.30
2019-02-17T03:58:13.631Z,1.30
2019-02-17T04:00:42.260Z,1.30
2019-02-17T04:03:10.817Z,1.00
2019-02-17T04:05:39.486Z,0.60
2019-02-17T04:08:08.081Z,0.40
2019-02-17T04:10:36.691Z,0.60
2019-02-17T04:13:05.287Z,0.80
2019-02-17T04:15:33.839Z,0.90
2019-02-17T04:18:02.521Z,1.00
2019-02-17T04:20:31.081Z,1.10
2019-02-17T04:22:59.672Z,1.10
2019-02-17T04:25:28.234Z,1.10
2019-02-17T04:27:56.828Z,1.00
2019-02-17T04:30:29.240Z,1.00
2019-02-17T04:32:55.644Z,1.10
2019-02-17T04:35:24.240Z,1.20
2019-02-17T04:37:52.791Z,1.00
2019-02-17T04:40:21.396Z,1.10
2019-02-17T04:42:49.936Z,1.10
2019-02-17T04:45:18.537Z,1.10
2019-02-17T04:47:47.092Z,1.00
2019-02-17T04:50:15.693Z,1.00
2019-02-17T04:52:44.239Z,1.00
2019-02-17T04:55:13.029Z,1.00
2019-02-17T04:57:41.520Z,1.00
2019-02-17T05:00:10.458Z,1.00
2019-02-17T05:02:39.080Z,0.90
2019-02-17T05:05:07.811Z,0.90
2019-02-17T05:07:36.365Z,0.50
2019-02-17T05:10:05.397Z,0.70
2019-02-17T05:12:33.964Z,0.80
2019-02-17T05:15:02.565Z,0.80
2019-02-17T05:17:31.115Z,0.80
2019-02-17T05:19:59.716Z,0.80
2019-02-17T05:22:28.272Z,0.70
2019-02-17T05:24:56.865Z,0.80
2019-02-17T05:27:25.416Z,0.80
2019-02-17T05:29:54.011Z,0.80
2019-02-17T05:32:22.571Z,0.80
2019-02-17T05:34:51.164Z,0.80
2019-02-17T05:37:19.736Z,0.90
2019-02-17T05:39:48.332Z,0.90
2019-02-17T05:42:16.884Z,0.80
2019-02-17T05:44:45.487Z,0.70
2019-02-17T05:47:14.032Z,0.90
2019-02-17T05:49:42.634Z,0.90
2019-02-17T05:52:11.185Z,0.90
2019-02-17T05:54:39.802Z,0.50
2019-02-17T05:57:08.354Z,0.50
2019-02-17T05:59:36.951Z,0.60
2019-02-17T06:02:05.501Z,0.60
2019-02-17T06:04:34.092Z,0.70
2019-02-17T06:07:02.657Z,0.60
2019-02-17T06:09:31.261Z,0.50
2019-02-17T06:11:59.821Z,0.50
2019-02-17T06:14:28.423Z,0.40
2019-02-17T06:16:56.972Z,0.30
2019-02-17T06:19:25.573Z,0.30
2019-02-17T06:21:54.135Z,0.40
2019-02-17T06:24:22.720Z,0.50
2019-02-17T06:26:51.273Z,0.40
2019-02-17T06:29:19.828Z,0.40
2019-02-17T06:31:48.423Z,0.40
2019-02-17T06:34:16.984Z,0.40
2019-02-17T06:36:45.581Z,0.40
2019-02-17T06:39:14.137Z,0.40
2019-02-17T06:41:42.732Z,0.50
2019-02-17T06:44:11.292Z,0.60
2019-02-17T06:46:41.538Z,0.70
2019-02-17T06:49:10.181Z,0.70
2019-02-17T06:51:38.777Z,0.70
2019-02-17T06:54:07.327Z,0.80
2019-02-17T06:56:37.563Z,0.80
2019-02-17T06:59:06.117Z,0.60
2019-02-17T07:01:34.713Z,0.70
2019-02-17T07:04:03.299Z,0.70
2019-02-17T07:06:33.509Z,0.60
2019-02-17T07:09:02.052Z,0.70
2019-02-17T07:11:30.685Z,0.70
2019-02-17T07:13:59.204Z,0.60
2019-02-17T07:16:27.804Z,0.60
2019-02-17T07:18:56.410Z,0.70
2019-02-17T07:21:24.996Z,0.80
2019-02-17T07:23:53.548Z,0.80
2019-02-17T07:26:22.148Z,1.00
2019-02-17T07:28:50.712Z,0.90
2019-02-17T07:31:19.307Z,1.00
2019-02-17T07:33:47.866Z,1.20
2019-02-17T07:36:16.460Z,1.30
2019-02-17T07:38:45.012Z,1.40
2019-02-17T07:41:13.613Z,1.20
2019-02-17T07:43:42.164Z,1.40
2019-02-17T07:46:10.764Z,1.50
2019-02-17T07:48:39.329Z,1.60
2019-02-17T07:51:07.926Z,1.70
2019-02-17T07:53:36.493Z,1.70
2019-02-17T07:56:05.160Z,1.90
2019-02-17T07:58:33.711Z,2.00
2019-02-17T08:01:02.685Z,2.10
2019-02-17T08:03:31.241Z,2.20
2019-02-17T08:05:59.856Z,2.30
2019-02-17T08:08:28.414Z,2.40
2019-02-17T08:11:03.681Z,2.40
2019-02-17T08:13:27.224Z,2.40
2019-02-17T08:15:55.824Z,2.50
2019-02-17T08:18:24.396Z,2.60
2019-02-17T08:20:53.013Z,2.60
2019-02-17T08:23:21.571Z,2.60
2019-02-17T08:25:50.138Z,2.60
2019-02-17T08:28:18.750Z,2.80
2019-02-17T08:30:47.380Z,2.90
2019-02-17T08:33:15.991Z,2.80
2019-02-17T08:35:44.570Z,2.90
2019-02-17T08:38:13.172Z,3.00
2019-02-17T08:40:41.742Z,3.20
2019-02-17T08:43:10.346Z,3.20
2019-02-17T08:45:38.973Z,3.40
2019-02-17T08:48:07.595Z,3.50
2019-02-17T08:50:36.226Z,3.60
2019-02-17T08:53:04.901Z,3.70
2019-02-17T08:55:33.455Z,3.90
2019-02-17T08:58:02.524Z,4.10
2019-02-17T09:00:31.077Z,4.10
2019-02-17T09:02:59.680Z,4.20
2019-02-17T09:05:28.241Z,4.30
2019-02-17T09:07:56.843Z,4.40
2019-02-17T09:10:25.409Z,4.70
2019-02-17T09:12:54.015Z,4.70
2019-02-17T09:15:22.572Z,4.80
2019-02-17T09:17:51.200Z,4.90
2019-02-17T09:20:19.816Z,5.10
2019-02-17T09:22:48.415Z,5.20
2019-02-17T09:25:16.973Z,5.40
2019-02-17T09:27:45.585Z,5.60
2019-02-17T09:30:16.785Z,5.70
2019-02-17T09:32:45.459Z,6.00
2019-02-17T09:35:14.197Z,6.10
2019-02-17T09:37:42.788Z,6.20
2019-02-17T09:40:12.483Z,6.30
2019-02-17T09:42:41.177Z,6.50
2019-02-17T09:45:16.539Z,6.80
2019-02-17T09:47:45.159Z,6.90
2019-02-17T09:50:14.468Z,7.10
2019-02-17T09:52:43.196Z,7.20
2019-02-17T09:55:11.858Z,7.30
2019-02-17T09:57:40.565Z,7.50
2019-02-17T10:00:11.665Z,7.60
2019-02-17T10:02:40.289Z,7.80
2019-02-17T10:05:10.485Z,7.90
2019-02-17T10:07:39.110Z,8.20
2019-02-17T10:10:13.065Z,8.40
2019-02-17T10:12:41.693Z,8.70
2019-02-17T10:15:12.283Z,8.70
2019-02-17T10:17:40.979Z,8.90
2019-02-17T10:20:12.132Z,9.10
2019-02-17T10:22:40.842Z,9.20
2019-02-17T10:25:09.907Z,9.30
2019-02-17T10:27:38.529Z,9.40
2019-02-17T10:30:10.154Z,9.50
2019-02-17T10:32:39.323Z,9.70
2019-02-17T10:35:08.082Z,9.90
2019-02-17T10:37:36.673Z,10.00
2019-02-17T10:40:09.472Z,10.10
2019-02-17T10:42:38.101Z,10.30
2019-02-17T10:45:07.621Z,10.60
2019-02-17T10:47:36.300Z,10.80
2019-02-17T10:50:07.693Z,11.00
2019-02-17T10:52:36.293Z,11.20
2019-02-17T10:55:06.893Z,11.40
2019-02-17T10:57:35.492Z,11.60
2019-02-17T11:00:08.792Z,11.70
2019-02-17T11:02:46.655Z,11.90
2019-02-17T11:05:09.438Z,11.90
2019-02-17T11:07:37.992Z,12.00
2019-02-17T11:10:10.929Z,12.10
2019-02-17T11:12:39.546Z,12.20
2019-02-17T11:15:21.590Z,12.30
2019-02-17T11:17:50.195Z,12.50
2019-02-17T11:20:18.854Z,12.70
2019-02-17T11:22:47.403Z,12.80
2019-02-17T11:25:16.104Z,12.90
2019-02-17T11:27:44.659Z,13.00
2019-02-17T11:30:20.736Z,13.10
2019-02-17T11:32:57.558Z,13.20
2019-02-17T11:35:19.710Z,13.40
2019-02-17T11:37:48.248Z,13.50
2019-02-17T11:40:16.853Z,13.60
2019-02-17T11:42:45.412Z,13.70
2019-02-17T11:45:18.982Z,13.60
2019-02-17T11:47:47.601Z,13.80
2019-02-17T11:50:16.280Z,13.90
2019-02-17T11:52:44.908Z,14.10
2019-02-17T11:55:15.060Z,14.20
2019-02-17T11:57:43.677Z,14.50
2019-02-17T12:00:17.677Z,14.50
2019-02-17T12:02:46.494Z,14.60
2019-02-17T12:05:15.165Z,14.70
2019-02-17T12:07:43.792Z,14.80
2019-02-17T12:10:12.546Z,14.90
2019-02-17T12:12:41.098Z,15.00
2019-02-17T12:15:12.150Z,15.10
2019-02-17T12:17:40.701Z,15.10
2019-02-17T12:20:19.709Z,15.20
2019-02-17T12:22:49.899Z,15.30
2019-02-17T12:25:20.288Z,15.30
2019-02-17T12:27:50.476Z,15.20
2019-02-17T12:30:19.743Z,15.30
2019-02-17T12:32:48.296Z,15.50
2019-02-17T12:35:16.896Z,15.50
2019-02-17T12:37:47.305Z,15.40
2019-02-17T12:40:15.724Z,15.60
2019-02-17T12:42:44.277Z,15.60
2019-02-17T12:45:17.924Z,15.50
2019-02-17T12:47:44.112Z,15.60
2019-02-17T12:50:12.870Z,15.60
2019-02-17T12:52:47.226Z,15.70
2019-02-17T12:55:11.684Z,15.70
2019-02-17T12:57:40.244Z,15.70
2019-02-17T13:00:15.545Z,15.60
2019-02-17T13:02:44.099Z,15.50
2019-02-17T13:05:12.791Z,15.50
2019-02-17T13:07:42.934Z,15.60
2019-02-17T13:10:12.291Z,15.60
2019-02-17T13:12:40.842Z,15.70
2019-02-17T13:15:14.311Z,15.80
2019-02-17T13:17:42.932Z,15.90
2019-02-17T13:20:13.774Z,15.90
2019-02-17T13:22:42.332Z,16.00
2019-02-17T13:25:15.745Z,16.00
2019-02-17T13:27:44.370Z,16.00
2019-02-17T13:30:23.756Z,16.00
2019-02-17T13:32:52.312Z,16.00
2019-02-17T13:35:20.935Z,15.90
2019-02-17T13:37:49.491Z,15.90
2019-02-17T13:40:18.091Z,16.00
2019-02-17T13:42:47.035Z,15.90
2019-02-17T13:45:16.772Z,16.00
2019-02-17T13:47:45.326Z,15.90
2019-02-17T13:50:15.294Z,16.00
2019-02-17T13:52:43.914Z,16.00
2019-02-17T13:55:12.774Z,15.90
2019-02-17T13:57:41.394Z,15.90
2019-02-17T14:00:15.297Z,16.00
2019-02-17T14:02:43.919Z,16.10
2019-02-17T14:05:12.619Z,16.00
2019-02-17T14:07:41.167Z,16.00
2019-02-17T14:10:11.409Z,16.00
2019-02-17T14:12:40.033Z,16.00
2019-02-17T14:15:13.984Z,15.90
2019-02-17T14:17:42.547Z,15.90
2019-02-17T14:20:11.528Z,15.80
2019-02-17T14:22:40.227Z,15.90
2019-02-17T14:25:11.037Z,15.90
2019-02-17T14:27:40.004Z,15.90
2019-02-17T14:30:14.235Z,15.90
2019-02-17T14:32:43.060Z,15.80
2019-02-17T14:35:12.131Z,15.80
2019-02-17T14:37:40.677Z,15.80
2019-02-17T14:40:11.240Z,15.80
2019-02-17T14:42:39.792Z,15.70
2019-02-17T14:45:11.415Z,15.70
2019-02-17T14:47:40.043Z,15.70
2019-02-17T14:50:09.237Z,15.80
2019-02-17T14:52:37.883Z,15.90
2019-02-17T14:55:13.239Z,15.80
2019-02-17T14:57:41.931Z,15.60
2019-02-17T15:00:15.278Z,15.60
2019-02-17T15:02:44.070Z,15.50
2019-02-17T15:05:12.764Z,15.60
2019-02-17T15:07:41.376Z,15.60
2019-02-17T15:10:11.368Z,15.50
2019-02-17T15:12:39.994Z,15.40
2019-02-17T15:15:10.775Z,15.40
2019-02-17T15:17:39.398Z,15.50
2019-02-17T15:20:18.794Z,15.60
2019-02-17T15:22:47.400Z,15.40
2019-02-17T15:25:16.093Z,15.40
2019-02-17T15:27:44.877Z,15.40
2019-02-17T15:30:17.659Z,15.20
2019-02-17T15:32:45.811Z,15.10
2019-02-17T15:35:14.436Z,15.00
2019-02-17T15:37:43.060Z,15.00
2019-02-17T15:40:13.155Z,15.10
2019-02-17T15:42:43.179Z,15.00
2019-02-17T15:45:13.255Z,14.80
2019-02-17T15:47:41.938Z,14.70
2019-02-17T15:50:11.723Z,14.60
2019-02-17T15:52:40.345Z,14.60
2019-02-17T15:55:11.303Z,14.50
2019-02-17T15:57:39.928Z,14.70
2019-02-17T16:00:16.138Z,14.60
2019-02-17T16:02:44.767Z,14.50
2019-02-17T16:05:13.414Z,14.40
2019-02-17T16:07:42.048Z,14.20
2019-02-17T16:10:15.692Z,14.10
2019-02-17T16:12:44.316Z,14.00
2019-02-17T16:15:23.873Z,13.90
2019-02-17T16:17:52.505Z,13.80
2019-02-17T16:20:21.304Z,13.60
2019-02-17T16:22:49.928Z,13.30
2019-02-17T16:25:18.477Z,13.10
2019-02-17T16:27:47.171Z,12.90
2019-02-17T16:30:17.160Z,12.80
2019-02-17T16:32:45.784Z,12.60
2019-02-17T16:35:14.336Z,12.40
2019-02-17T16:37:42.963Z,12.20
2019-02-17T16:40:13.555Z,12.10
2019-02-17T16:42:42.172Z,11.90
2019-02-17T16:45:12.274Z,11.80
2019-02-17T16:47:40.968Z,11.70
2019-02-17T16:50:12.571Z,11.50
2019-02-17T16:52:41.201Z,11.40
2019-02-17T16:55:10.894Z,11.40
2019-02-17T16:57:39.520Z,11.10
2019-02-17T17:00:17.884Z,11.00
2019-02-17T17:02:46.581Z,10.90
2019-02-17T17:05:15.273Z,10.70
2019-02-17T17:07:43.914Z,10.60
2019-02-17T17:10:12.632Z,10.40
2019-02-17T17:12:41.628Z,10.20
2019-02-17T17:15:10.624Z,10.20
2019-02-17T17:17:39.302Z,10.10
2019-02-17T17:20:10.296Z,10.00
2019-02-17T17:22:38.919Z,9.90
2019-02-17T17:25:09.886Z,9.70
2019-02-17T17:27:38.560Z,9.60
2019-02-17T17:30:15.016Z,9.50
2019-02-17T17:32:43.708Z,9.40
2019-02-17T17:35:12.317Z,9.30
2019-02-17T17:37:40.941Z,9.20
2019-02-17T17:40:17.479Z,9.20
2019-02-17T17:42:46.279Z,9.10
2019-02-17T17:45:19.252Z,9.10
2019-02-17T17:47:48.075Z,9.00
2019-02-17T17:50:16.900Z,9.00
2019-02-17T17:52:45.541Z,8.80
2019-02-17T17:55:14.334Z,8.60
2019-02-17T17:57:42.963Z,8.50
2019-02-17T18:00:17.311Z,8.50
2019-02-17T18:02:45.948Z,8.40
2019-02-17T18:05:14.732Z,8.40
2019-02-17T18:07:43.442Z,8.30
2019-02-17T18:10:16.877Z,8.30
2019-02-17T18:12:45.747Z,8.20
2019-02-17T18:15:17.379Z,8.10
2019-02-17T18:17:53.904Z,8.10
2019-02-17T18:20:16.568Z,7.90
2019-02-17T18:22:45.194Z,7.90
2019-02-17T18:25:14.261Z,7.90
2019-02-17T18:27:42.988Z,7.80
2019-02-17T18:30:21.689Z,7.80
2019-02-17T18:32:50.244Z,7.70
2019-02-17T18:35:20.435Z,7.60
2019-02-17T18:37:49.305Z,7.50
2019-02-17T18:40:19.373Z,7.40
2019-02-17T18:42:48.086Z,7.30
2019-02-17T18:45:17.076Z,7.30
2019-02-17T18:47:45.703Z,7.20
2019-02-17T18:50:15.582Z,7.20
2019-02-17T18:52:44.141Z,7.10
2019-02-17T18:55:13.500Z,7.00
2019-02-17T18:57:49.622Z,6.90
2019-02-17T19:00:18.136Z,6.90
2019-02-17T19:02:46.698Z,6.90
2019-02-17T19:05:15.328Z,6.80
2019-02-17T19:07:43.958Z,6.70
2019-02-17T19:10:14.427Z,6.70
2019-02-17T19:12:43.127Z,6.60
2019-02-17T19:15:16.606Z,6.50
2019-02-17T19:17:45.163Z,6.50
2019-02-17T19:20:25.202Z,6.30
2019-02-17T19:22:53.756Z,6.20
2019-02-17T19:25:22.396Z,6.40
2019-02-17T19:27:51.529Z,6.20
2019-02-17T19:30:20.220Z,6.20
2019-02-17T19:32:50.920Z,6.10
2019-02-17T19:35:19.551Z,5.90
2019-02-17T19:37:48.104Z,5.90
2019-02-17T19:40:16.727Z,6.00
2019-02-17T19:42:45.360Z,5.90
2019-02-17T19:45:17.634Z,5.90
2019-02-17T19:47:46.328Z,5.80
2019-02-17T19:50:15.801Z,5.70
2019-02-17T19:52:44.731Z,5.60
2019-02-17T19:55:14.199Z,5.50
2019-02-17T19:57:42.892Z,5.40
2019-02-17T20:00:14.602Z,5.30
2019-02-17T20:02:56.883Z,5.30
2019-02-17T20:05:29.888Z,5.30
2019-02-17T20:07:58.512Z,5.40
2019-02-17T20:10:27.208Z,5.30
2019-02-17T20:12:55.766Z,5.40
2019-02-17T20:15:26.033Z,5.10
2019-02-17T20:17:54.580Z,4.80
2019-02-17T20:20:23.402Z,4.90
2019-02-17T20:22:52.023Z,4.90
2019-02-17T20:25:20.657Z,4.90
2019-02-17T20:27:49.217Z,5.00
2019-02-17T20:30:17.919Z,4.90
2019-02-17T20:32:46.480Z,4.90
2019-02-17T20:35:15.100Z,4.70
2019-02-17T20:37:43.661Z,4.80
2019-02-17T20:40:16.352Z,4.70
2019-02-17T20:42:44.913Z,4.70
2019-02-17T20:45:13.671Z,4.50
2019-02-17T20:47:42.243Z,4.60
2019-02-17T20:50:13.049Z,4.60
2019-02-17T20:52:41.613Z,4.60
2019-02-17T20:55:11.685Z,4.70
2019-02-17T20:57:40.245Z,4.50
2019-02-17T21:00:22.578Z,4.60
2019-02-17T21:02:50.988Z,4.50
2019-02-17T21:05:20.024Z,4.50
2019-02-17T21:07:48.678Z,4.40
2019-02-17T21:10:17.388Z,4.30
2019-02-17T21:12:45.927Z,4.30
2019-02-17T21:15:17.570Z,4.30
2019-02-17T21:17:46.196Z,4.30
2019-02-17T21:20:15.768Z,4.10
2019-02-17T21:22:44.501Z,4.00
2019-02-17T21:25:14.164Z,3.90
2019-02-17T21:27:42.788Z,4.00
2019-02-17T21:30:13.940Z,4.10
2019-02-17T21:32:42.488Z,4.10
2019-02-17T21:35:13.928Z,4.00
2019-02-17T21:37:42.566Z,3.90
2019-02-17T21:40:12.556Z,4.00
2019-02-17T21:42:41.170Z,4.10
2019-02-17T21:45:14.691Z,4.10
2019-02-17T21:47:43.540Z,3.90
2019-02-17T21:50:16.053Z,3.80
2019-02-17T21:52:44.669Z,3.80
2019-02-17T21:55:14.578Z,3.70
2019-02-17T21:57:43.308Z,3.80
2019-02-17T22:00:18.129Z,3.80
2019-02-17T22:02:46.804Z,3.70
2019-02-17T22:05:15.436Z,3.70
2019-02-17T22:07:44.192Z,3.50
2019-02-17T22:10:14.584Z,3.50
2019-02-17T22:12:43.180Z,3.60
2019-02-17T22:15:14.351Z,3.60
2019-02-17T22:17:42.964Z,3.50
2019-02-17T22:20:12.059Z,3.50
2019-02-17T22:22:40.736Z,3.40
2019-02-17T22:25:10.135Z,3.50
2019-02-17T22:27:38.735Z,3.40
2019-02-17T22:30:10.243Z,3.50
2019-02-17T22:32:38.843Z,3.40
2019-02-17T22:35:07.473Z,3.30
2019-02-17T22:37:36.079Z,3.30
2019-02-17T22:40:12.120Z,3.30
2019-02-17T22:42:40.729Z,3.20
2019-02-17T22:45:10.529Z,3.20
2019-02-17T22:47:39.199Z,3.40
2019-02-17T22:50:12.348Z,3.40
2019-02-17T22:52:40.952Z,3.30
2019-02-17T22:55:11.516Z,2.90
2019-02-17T22:57:40.355Z,2.70
2019-02-17T23:00:30.147Z,2.80
2019-02-17T23:02:58.887Z,2.70
2019-02-17T23:05:27.508Z,2.80
2019-02-17T23:07:56.112Z,2.90
2019-02-17T23:10:24.735Z,3.00
2019-02-17T23:12:53.339Z,3.00
2019-02-17T23:15:21.964Z,2.90
2019-02-17T23:17:50.563Z,2.90
2019-02-17T23:20:19.127Z,3.00
2019-02-17T23:22:47.749Z,3.00
2019-02-17T23:25:16.453Z,3.10
2019-02-17T23:27:45.049Z,3.00
2019-02-17T23:30:13.741Z,2.90
2019-02-17T23:32:42.339Z,2.70
2019-02-17T23:35:11.144Z,2.70
2019-02-17T23:37:39.742Z,2.70
2019-02-17T23:40:11.718Z,2.80
2019-02-17T23:42:40.326Z,2.70
2019-02-17T23:45:13.199Z,2.60
2019-02-17T23:47:41.888Z,2.50
2019-02-17T23:50:11.888Z,2.50
2019-02-17T23:52:40.492Z,2.60
2019-02-17T23:55:10.388Z,2.70
2019-02-17T23:57:39.323Z,2.70
